Airfield :
LOGIN :

Register | Disclaimer

   EN    FR    IT 

 










Legend :    VFR   Marginal VFR   IFR   Intensive IFR   Very Intensive IFR
Visi :
Ceiling :
>= 8 km
>= 3000ft
5 to 8 km
1000 to 3000 ft
1500m to 5 km
500 to 1000 ft
800 to 1500m
200 to 500 ft
< 800m
< 200 ft
Symbols :   Thunderstorms  Fog  Heavy snow  Heavy precipitations  Wind > 20 kt
SIGMETs :     Misc.  Thunderstorms  Icing  Turbulence  Mountain Waves  Volcanic Ashes






- Airport Elevation : 119 ft
- IATA code : WAT


EIWF - Waterford

CURRENT METAR :
  • 100930Z 16007KT 7000 NSC 14/10 Q1022

EXPIRED METARs :
  • 100900Z 15007KT 7000 NSC 13/10 Q1022
  • 100830Z 14005KT 110V170 7000 NSC 12/10 Q1022
  • 100800Z 13005KT 100V160 6000 NSC 11/09 Q1022
  • 100730Z VRB03KT 6000 NSC 11/10 Q1022
  • 100700Z VRB03KT 6000 NSC 10/09 Q1022

TAF TAF EIWF
Valid from the 10 at 09:00 until the 10 at 18:00 UTC


100800Z 1009/1018 13006KT 9999 FEW030
BECMG 1012/1014 17006KT
BECMG 1016/1018 VRB03KT
ATIS : +353 51 877 000



MET'MAP, your aeronautical weather chart ! - Copyright ORBIFLY December 2007 - Disclaimer

ORBIFLY MET'MAP TEAM :

Programming & Development : Alexandra Zaïnal
Concept & original design : Baudouin d'Aumeries
Assistance for programming : Marc-Olivier Méhu
Technical & hardware support : Manuel Goepfert

Contact : metmap@orbifly.com




SOURCES & CREDITS :

   NOAA